Terminal Aerodrome Forecast
Issued by NWS Northern Indiana

Home | Current Version | Previous Version | Graphics & Text | Print | Product List | Glossary On
Versions: 1 2 3 4 5 6 7 8 9 10 11 12 13 14 15 16 17
000
FTUS43 KIWX 131100
TAFFWA
TAF
KFWA 131136Z 1312/1412 22016G22KT P6SM SCT060 BKN250
     FM131600 20022G30KT P6SM BKN050
     FM140000 19018G26KT P6SM BKN060=

USA.gov is the U.S. government's official web portal to all federal, state and local government web resources and services.